createdAt,value
2018-09-22T00:00:26.322Z,71.89
2018-09-22T00:01:32.609Z,72.42
2018-09-22T00:02:38.848Z,71.41
2018-09-22T00:03:45.101Z,71.28
2018-09-22T00:04:51.344Z,71.13
2018-09-22T00:05:57.601Z,71.23
2018-09-22T00:07:03.503Z,71.28
2018-09-22T00:08:09.731Z,71.03
2018-09-22T00:09:16.925Z,71.21
2018-09-22T00:10:24.500Z,71.38
2018-09-22T00:11:31.268Z,70.86
2018-09-22T00:12:37.615Z,70.75
2018-09-22T00:13:43.857Z,71.10
2018-09-22T00:14:50.259Z,70.78
2018-09-22T00:15:56.501Z,71.57
2018-09-22T00:17:02.567Z,71.70
2018-09-22T00:18:08.821Z,71.88
2018-09-22T00:19:14.769Z,71.90
2018-09-22T00:20:21.917Z,71.03
2018-09-22T00:21:28.152Z,71.04
2018-09-22T00:22:34.452Z,70.76
2018-09-22T00:23:40.677Z,70.70
2018-09-22T00:24:46.687Z,70.33
2018-09-22T00:25:52.904Z,71.04
2018-09-22T00:26:59.185Z,71.04
2018-09-22T00:28:05.492Z,70.68
2018-09-22T00:29:11.704Z,70.81
2018-09-22T00:30:17.977Z,71.07
2018-09-22T00:31:24.247Z,71.01
2018-09-22T00:32:30.154Z,71.15
2018-09-22T00:33:36.433Z,71.82
2018-09-22T00:34:42.657Z,71.77
2018-09-22T00:35:48.921Z,72.12
2018-09-22T00:36:54.848Z,71.50
2018-09-22T00:38:01.118Z,71.62
2018-09-22T00:39:07.051Z,72.12
2018-09-22T00:40:13.272Z,71.34
2018-09-22T00:41:19.559Z,71.03
2018-09-22T00:42:25.807Z,71.51
2018-09-22T00:43:32.029Z,71.82
2018-09-22T00:44:38.282Z,71.31
2018-09-22T00:45:44.541Z,70.99
2018-09-22T00:46:50.765Z,70.89
2018-09-22T00:47:57.052Z,71.83
2018-09-22T00:49:03.312Z,71.61
2018-09-22T00:50:09.597Z,71.32
2018-09-22T00:51:15.836Z,71.42
2018-09-22T00:52:22.130Z,71.13
2018-09-22T00:53:28.388Z,71.00
2018-09-22T00:54:34.633Z,70.95
2018-09-22T00:55:40.876Z,70.52
2018-09-22T00:56:47.096Z,70.86
2018-09-22T00:57:53.369Z,71.26
2018-09-22T00:58:59.600Z,70.66
2018-09-22T01:00:06.261Z,70.56
2018-09-22T01:01:13.432Z,70.32
2018-09-22T01:02:19.688Z,70.74
2018-09-22T01:03:25.940Z,71.06
2018-09-22T01:04:31.952Z,71.04
2018-09-22T01:05:39.140Z,70.94
2018-09-22T01:06:45.375Z,70.35
2018-09-22T01:07:51.649Z,70.12
2018-09-22T01:08:57.896Z,70.19
2018-09-22T01:10:03.810Z,70.25
2018-09-22T01:11:10.058Z,70.42
2018-09-22T01:12:16.324Z,70.99
2018-09-22T01:13:22.575Z,70.67
2018-09-22T01:14:28.803Z,71.18
2018-09-22T01:15:35.128Z,71.29
2018-09-22T01:16:41.494Z,70.70
2018-09-22T01:17:47.513Z,70.83
2018-09-22T01:18:53.472Z,71.39
2018-09-22T01:19:59.710Z,71.24
2018-09-22T01:21:05.665Z,71.83
2018-09-22T01:22:11.887Z,71.78
2018-09-22T01:23:18.146Z,71.83
2018-09-22T01:24:24.416Z,72.66
2018-09-22T01:25:31.701Z,73.10
2018-09-22T01:26:39.056Z,72.25
2018-09-22T01:27:46.513Z,71.62
2018-09-22T01:28:54.211Z,71.97
2018-09-22T01:30:02.276Z,71.59
2018-09-22T01:31:09.917Z,71.08
2018-09-22T01:32:16.985Z,70.77
2018-09-22T01:33:23.887Z,70.62
2018-09-22T01:34:30.529Z,70.24
2018-09-22T01:35:37.128Z,71.41
2018-09-22T01:36:44.530Z,71.11
2018-09-22T01:37:52.026Z,70.98
2018-09-22T01:38:59.414Z,71.03
2018-09-22T01:40:05.724Z,71.32
2018-09-22T01:41:11.924Z,71.37
2018-09-22T01:42:18.176Z,71.07
2018-09-22T01:43:24.454Z,70.79
2018-09-22T01:44:30.697Z,70.85
2018-09-22T01:45:36.697Z,72.15
2018-09-22T01:46:42.919Z,71.63
2018-09-22T01:47:48.990Z,70.88
2018-09-22T01:48:56.236Z,70.99
2018-09-22T01:50:02.789Z,71.14
2018-09-22T01:51:09.322Z,71.40
2018-09-22T01:52:15.609Z,71.16
2018-09-22T01:53:21.892Z,70.89
2018-09-22T01:54:28.145Z,71.04
2018-09-22T01:55:34.087Z,70.54
2018-09-22T01:56:40.348Z,70.70
2018-09-22T01:57:46.611Z,70.27
2018-09-22T01:58:52.833Z,70.19
2018-09-22T01:59:59.116Z,71.52
2018-09-22T02:01:05.449Z,71.13
2018-09-22T02:02:11.713Z,70.81
2018-09-22T02:03:18.017Z,71.22
2018-09-22T02:04:23.945Z,70.90
2018-09-22T02:05:30.275Z,71.01
2018-09-22T02:06:36.621Z,70.58
2018-09-22T02:07:45.573Z,70.25
2018-09-22T02:08:51.869Z,70.41
2018-09-22T02:09:58.128Z,70.36
2018-09-22T02:11:04.357Z,70.47
2018-09-22T02:12:10.598Z,70.69
2018-09-22T02:13:16.912Z,71.11
2018-09-22T02:14:23.154Z,70.75
2018-09-22T02:15:29.379Z,70.41
2018-09-22T02:16:35.652Z,70.87
2018-09-22T02:17:41.888Z,70.42
2018-09-22T02:18:48.189Z,70.53
2018-09-22T02:19:54.461Z,70.93
2018-09-22T02:21:00.701Z,70.67
2018-09-22T02:22:06.958Z,71.80
2018-09-22T02:23:13.206Z,71.72
2018-09-22T02:24:23.308Z,72.80
2018-09-22T02:25:29.547Z,72.33
2018-09-22T02:26:35.791Z,72.33
2018-09-22T02:27:41.118Z,71.61
2018-09-22T02:28:47.403Z,71.08
2018-09-22T02:29:53.618Z,71.36
2018-09-22T02:30:59.606Z,71.38
2018-09-22T02:32:05.860Z,72.25
2018-09-22T02:33:11.859Z,72.73
2018-09-22T02:34:17.933Z,73.22
2018-09-22T02:35:24.213Z,72.35
2018-09-22T02:36:30.474Z,71.94
2018-09-22T02:37:36.770Z,73.25
2018-09-22T02:38:43.026Z,73.63
2018-09-22T02:39:49.292Z,72.68
2018-09-22T02:40:55.526Z,73.14
2018-09-22T02:42:01.428Z,72.46
2018-09-22T02:43:07.061Z,71.50
2018-09-22T02:44:13.029Z,71.29
2018-09-22T02:45:19.309Z,71.16
2018-09-22T02:46:25.542Z,71.52
2018-09-22T02:47:31.811Z,70.90
2018-09-22T02:48:38.089Z,71.26
2018-09-22T02:49:44.328Z,71.35
2018-09-22T02:50:50.593Z,72.03
2018-09-22T02:51:56.820Z,71.48
2018-09-22T02:53:03.090Z,70.97
2018-09-22T02:54:09.341Z,71.20
2018-09-22T02:55:15.568Z,72.15
2018-09-22T02:56:21.810Z,72.60
2018-09-22T02:57:28.949Z,71.71
2018-09-22T02:58:35.216Z,71.80
2018-09-22T02:59:41.514Z,71.52
2018-09-22T03:00:47.813Z,71.77
2018-09-22T03:01:54.208Z,71.27
2018-09-22T03:03:00.544Z,72.09
2018-09-22T03:04:06.828Z,71.22
2018-09-22T03:05:13.065Z,71.35
2018-09-22T03:06:19.342Z,71.60
2018-09-22T03:07:25.562Z,72.64
2018-09-22T03:08:31.824Z,71.99
2018-09-22T03:09:38.083Z,71.90
2018-09-22T03:10:44.339Z,71.82
2018-09-22T03:11:50.580Z,72.80
2018-09-22T03:12:56.835Z,72.88
2018-09-22T03:14:03.091Z,72.40
2018-09-22T03:15:08.392Z,71.68
2018-09-22T03:16:14.655Z,71.60
2018-09-22T03:17:20.885Z,71.27
2018-09-22T03:18:27.170Z,71.12
2018-09-22T03:19:33.082Z,71.02
2018-09-22T03:20:44.406Z,71.32
2018-09-22T03:21:50.652Z,71.70
2018-09-22T03:22:56.912Z,71.65
2018-09-22T03:24:03.172Z,71.31
2018-09-22T03:25:09.132Z,71.41
2018-09-22T03:26:15.561Z,72.04
2018-09-22T03:27:21.429Z,72.45
2018-09-22T03:28:27.664Z,71.91
2018-09-22T03:29:33.930Z,71.85
2018-09-22T03:30:40.214Z,71.29
2018-09-22T03:31:46.467Z,70.66
2018-09-22T03:32:52.736Z,71.04
2018-09-22T03:33:58.991Z,70.68
2018-09-22T03:35:04.551Z,70.92
2018-09-22T03:36:10.796Z,70.33
2018-09-22T03:37:17.037Z,70.64
2018-09-22T03:38:23.265Z,71.02
2018-09-22T03:39:29.527Z,71.27
2018-09-22T03:40:35.787Z,71.35
2018-09-22T03:41:42.102Z,71.37
2018-09-22T03:42:48.376Z,71.60
2018-09-22T03:43:54.629Z,71.49
2018-09-22T03:45:00.856Z,71.38
2018-09-22T03:46:07.096Z,71.40
2018-09-22T03:47:13.334Z,70.99
2018-09-22T03:48:19.606Z,71.02
2018-09-22T03:49:25.856Z,71.25
2018-09-22T03:50:32.108Z,70.77
2018-09-22T03:51:38.436Z,70.81
2018-09-22T03:52:44.668Z,70.88
2018-09-22T03:53:50.956Z,71.21
2018-09-22T03:54:57.247Z,71.60
2018-09-22T03:56:03.173Z,71.52
2018-09-22T03:57:09.442Z,71.14
2018-09-22T03:58:15.722Z,71.14
2018-09-22T03:59:21.988Z,71.39
2018-09-22T04:00:28.223Z,71.78
2018-09-22T04:01:34.509Z,71.57
2018-09-22T04:02:40.802Z,71.53
2018-09-22T04:03:47.055Z,71.49
2018-09-22T04:04:53.385Z,71.76
2018-09-22T04:05:59.671Z,71.23
2018-09-22T04:07:05.929Z,72.02
2018-09-22T04:08:12.177Z,72.01
2018-09-22T04:09:18.542Z,72.73
2018-09-22T04:10:25.733Z,72.51
2018-09-22T04:11:31.963Z,72.12
2018-09-22T04:12:38.229Z,72.29
2018-09-22T04:13:44.476Z,72.26
2018-09-22T04:14:50.733Z,71.96
2018-09-22T04:15:56.977Z,72.57
2018-09-22T04:17:03.248Z,72.60
2018-09-22T04:18:09.488Z,72.74
2018-09-22T04:19:15.749Z,72.78
2018-09-22T04:20:21.992Z,72.48
2018-09-22T04:21:28.240Z,71.94
2018-09-22T04:22:34.519Z,72.59
2018-09-22T04:23:40.740Z,72.58
2018-09-22T04:24:47.061Z,72.15
2018-09-22T04:25:53.280Z,72.57
2018-09-22T04:26:59.548Z,72.46
2018-09-22T04:28:05.791Z,72.72
2018-09-22T04:29:12.018Z,72.59
2018-09-22T04:30:18.289Z,71.99
2018-09-22T04:31:24.799Z,72.35
2018-09-22T04:32:31.086Z,72.96
2018-09-22T04:33:37.369Z,72.90
2018-09-22T04:34:43.637Z,72.35
2018-09-22T04:35:49.903Z,72.11
2018-09-22T04:36:56.137Z,72.57
2018-09-22T04:38:02.385Z,72.82
2018-09-22T04:39:08.780Z,72.46
2018-09-22T04:40:15.103Z,73.08
2018-09-22T04:41:21.355Z,72.23
2018-09-22T04:42:27.585Z,72.76
2018-09-22T04:43:33.596Z,73.62
2018-09-22T04:44:39.853Z,73.30
2018-09-22T04:45:46.104Z,72.66
2018-09-22T04:46:52.361Z,72.06
2018-09-22T04:47:58.582Z,71.84
2018-09-22T04:49:04.493Z,72.18
2018-09-22T04:50:10.804Z,71.96
2018-09-22T04:51:17.140Z,72.09
2018-09-22T04:52:23.115Z,72.27
2018-09-22T04:53:29.387Z,72.09
2018-09-22T04:54:35.766Z,72.02
2018-09-22T04:55:42.579Z,72.45
2018-09-22T04:56:49.036Z,72.82
2018-09-22T04:57:55.282Z,72.59
2018-09-22T04:59:01.522Z,72.91
2018-09-22T05:00:07.860Z,72.32
2018-09-22T05:01:14.819Z,72.71
2018-09-22T05:02:21.483Z,72.40
2018-09-22T05:03:28.336Z,72.38
2018-09-22T05:04:36.332Z,72.62
2018-09-22T05:05:42.617Z,73.41
2018-09-22T05:06:48.842Z,73.47
2018-09-22T05:07:55.065Z,72.83
2018-09-22T05:09:00.958Z,72.54
2018-09-22T05:10:07.254Z,72.54
2018-09-22T05:11:13.793Z,72.94
2018-09-22T05:12:21.605Z,73.01
2018-09-22T05:13:28.003Z,72.83
2018-09-22T05:14:34.258Z,73.19
2018-09-22T05:15:40.593Z,72.70
2018-09-22T05:16:47.661Z,72.93
2018-09-22T05:17:53.936Z,73.22
2018-09-22T05:19:01.076Z,73.47
2018-09-22T05:20:07.221Z,73.02
2018-09-22T05:21:13.919Z,72.89
2018-09-22T05:22:20.247Z,73.57
2018-09-22T05:23:26.615Z,74.13
2018-09-22T05:24:33.150Z,73.49
2018-09-22T05:25:39.529Z,73.16
2018-09-22T05:26:47.330Z,73.41
2018-09-22T05:27:53.563Z,73.96
2018-09-22T05:28:59.802Z,73.41
2018-09-22T05:30:05.559Z,73.98
2018-09-22T05:31:11.937Z,73.64
2018-09-22T05:32:18.613Z,73.33
2018-09-22T05:33:27.183Z,73.51
2018-09-22T05:34:33.889Z,73.28
2018-09-22T05:35:40.161Z,73.29
2018-09-22T05:36:46.476Z,72.95
2018-09-22T05:37:52.840Z,73.78
2018-09-22T05:38:59.264Z,73.87
2018-09-22T05:40:05.009Z,73.48
2018-09-22T05:41:11.035Z,73.32
2018-09-22T05:42:17.484Z,72.99
2018-09-22T05:43:23.801Z,72.84
2018-09-22T05:44:30.107Z,72.63
2018-09-22T05:45:36.467Z,72.86
2018-09-22T05:46:42.763Z,72.82
2018-09-22T05:47:48.678Z,72.84
2018-09-22T05:48:54.971Z,73.17
2018-09-22T05:50:01.408Z,72.81
2018-09-22T05:51:07.658Z,72.75
2018-09-22T05:52:13.888Z,72.35
2018-09-22T05:53:20.154Z,72.33
2018-09-22T05:54:26.396Z,72.42
2018-09-22T05:55:33.028Z,72.50
2018-09-22T05:56:39.377Z,72.83
2018-09-22T05:57:45.617Z,72.44
2018-09-22T05:58:51.866Z,72.07
2018-09-22T05:59:58.104Z,72.20
2018-09-22T06:01:04.370Z,72.40
2018-09-22T06:02:10.639Z,72.23
2018-09-22T06:03:16.900Z,72.55
2018-09-22T06:04:23.387Z,73.70
2018-09-22T06:05:30.308Z,73.17
2018-09-22T06:06:36.684Z,72.46
2018-09-22T06:07:43.123Z,72.71
2018-09-22T06:08:49.641Z,72.28
2018-09-22T06:09:56.362Z,72.30
2018-09-22T06:11:03.193Z,72.01
2018-09-22T06:12:09.902Z,72.00
2018-09-22T06:13:15.934Z,72.30
2018-09-22T06:14:22.400Z,72.23
2018-09-22T06:15:28.872Z,72.22
2018-09-22T06:16:36.130Z,71.87
2018-09-22T06:17:43.882Z,71.58
2018-09-22T06:18:50.257Z,71.54
2018-09-22T06:19:59.359Z,71.85
2018-09-22T06:21:05.747Z,71.46
2018-09-22T06:22:15.420Z,71.51
2018-09-22T06:23:22.228Z,71.60
2018-09-22T06:24:28.887Z,71.28
2018-09-22T06:25:35.293Z,71.24
2018-09-22T06:26:42.198Z,71.35
2018-09-22T06:27:49.430Z,71.59
2018-09-22T06:29:01.374Z,71.27
2018-09-22T06:30:09.251Z,71.13
2018-09-22T06:31:18.157Z,71.55
2018-09-22T06:32:26.148Z,71.12
2018-09-22T06:33:33.727Z,71.34
2018-09-22T06:34:40.575Z,71.32
2018-09-22T06:35:49.295Z,71.49
2018-09-22T06:36:56.363Z,71.14
2018-09-22T06:38:04.135Z,71.28
2018-09-22T06:39:10.374Z,71.53
2018-09-22T06:40:16.952Z,70.67
2018-09-22T06:41:26.334Z,70.53
2018-09-22T06:42:35.092Z,70.39
2018-09-22T06:43:43.354Z,70.29
2018-09-22T06:44:50.082Z,70.34
2018-09-22T06:45:57.127Z,70.99
2018-09-22T06:47:03.367Z,70.73
2018-09-22T06:48:09.611Z,70.30
2018-09-22T06:49:15.845Z,70.47
2018-09-22T06:50:22.108Z,70.33
2018-09-22T06:51:28.362Z,70.31
2018-09-22T06:52:34.623Z,70.17
2018-09-22T06:53:40.832Z,70.68
2018-09-22T06:54:47.071Z,70.21
2018-09-22T06:55:53.298Z,70.21
2018-09-22T06:56:59.577Z,70.39
2018-09-22T06:58:05.844Z,70.54
2018-09-22T06:59:12.072Z,70.11
2018-09-22T07:00:18.330Z,70.86
2018-09-22T07:01:24.785Z,70.44
2018-09-22T07:02:31.092Z,70.55
2018-09-22T07:03:37.333Z,70.59
2018-09-22T07:04:43.587Z,70.58
2018-09-22T07:05:49.853Z,70.50
2018-09-22T07:06:56.123Z,70.21
2018-09-22T07:08:02.361Z,70.01
2018-09-22T07:09:08.394Z,69.86
2018-09-22T07:10:14.672Z,69.89
2018-09-22T07:11:20.942Z,70.63
2018-09-22T07:12:27.198Z,70.17
2018-09-22T07:13:33.523Z,69.51
2018-09-22T07:14:39.785Z,69.42
2018-09-22T07:15:46.100Z,69.97
2018-09-22T07:16:52.389Z,69.70
2018-09-22T07:17:58.624Z,69.29
2018-09-22T07:19:04.860Z,69.06
2018-09-22T07:20:11.104Z,69.09
2018-09-22T07:21:17.151Z,68.45
2018-09-22T07:23:58.663Z,68.89
2018-09-22T07:25:04.915Z,68.38
2018-09-22T07:26:11.154Z,68.62
2018-09-22T07:27:17.393Z,68.53
2018-09-22T07:28:23.688Z,67.92
2018-09-22T07:29:29.760Z,67.57
2018-09-22T07:30:36.028Z,67.81
2018-09-22T07:31:42.309Z,67.45
2018-09-22T07:32:48.548Z,67.35
2018-09-22T07:33:54.772Z,67.49
2018-09-22T07:35:01.072Z,67.41
2018-09-22T07:36:07.349Z,67.00
2018-09-22T07:37:13.641Z,66.75
2018-09-22T07:38:20.835Z,66.54
2018-09-22T07:39:28.460Z,66.41
2018-09-22T07:40:36.574Z,66.28
2018-09-22T07:41:43.794Z,66.24
2018-09-22T07:42:54.435Z,66.86
2018-09-22T07:44:01.731Z,66.76
2018-09-22T07:45:09.053Z,65.97
2018-09-22T07:46:16.618Z,65.89
2018-09-22T07:47:23.647Z,65.17
2018-09-22T07:48:30.987Z,64.89
2018-09-22T07:49:38.364Z,65.17
2018-09-22T07:50:45.602Z,65.09
2018-09-22T07:51:51.596Z,65.37
2018-09-22T07:52:57.844Z,65.18
2018-09-22T07:54:04.108Z,65.18
2018-09-22T07:55:10.355Z,65.28
2018-09-22T07:56:16.755Z,65.22
2018-09-22T07:57:23.076Z,64.88
2018-09-22T07:58:29.341Z,64.03
2018-09-22T07:59:35.578Z,64.45
2018-09-22T08:00:41.893Z,64.88
2018-09-22T08:01:48.201Z,64.13
2018-09-22T08:02:54.598Z,64.26
2018-09-22T08:04:00.838Z,63.71
2018-09-22T08:05:06.420Z,63.79
2018-09-22T08:06:12.785Z,63.68
2018-09-22T08:07:19.090Z,64.00
2018-09-22T08:08:25.329Z,63.53
2018-09-22T08:09:31.583Z,63.00
2018-09-22T08:10:37.832Z,63.06
2018-09-22T08:11:44.165Z,63.45
2018-09-22T08:12:50.612Z,63.51
2018-09-22T08:13:56.856Z,63.56
2018-09-22T08:15:03.102Z,62.95
2018-09-22T08:16:09.003Z,62.81
2018-09-22T08:17:15.252Z,63.26
2018-09-22T08:18:21.501Z,62.22
2018-09-22T08:19:27.862Z,61.85
2018-09-22T08:20:34.092Z,61.86
2018-09-22T08:21:40.377Z,62.12
2018-09-22T08:22:46.655Z,61.33
2018-09-22T08:23:52.937Z,61.31
2018-09-22T08:24:59.172Z,61.61
2018-09-22T08:26:05.123Z,61.14
2018-09-22T08:27:11.429Z,61.31
2018-09-22T08:28:17.667Z,61.28
2018-09-22T08:29:23.979Z,61.45
2018-09-22T08:30:29.875Z,61.74
2018-09-22T08:31:35.906Z,61.96
2018-09-22T08:32:42.243Z,61.41
2018-09-22T08:33:48.484Z,61.16
2018-09-22T08:34:54.489Z,61.49
2018-09-22T08:36:00.767Z,61.82
2018-09-22T08:37:07.482Z,61.67
2018-09-22T08:38:13.453Z,61.31
2018-09-22T08:39:19.732Z,61.66
2018-09-22T08:40:25.952Z,61.97
2018-09-22T08:41:32.188Z,61.46
2018-09-22T08:42:38.513Z,61.60
2018-09-22T08:43:44.782Z,61.00
2018-09-22T08:44:51.066Z,61.14
2018-09-22T08:45:57.521Z,61.11
2018-09-22T08:47:03.799Z,61.77
2018-09-22T08:48:10.047Z,61.11
2018-09-22T08:49:16.299Z,61.99
2018-09-22T08:50:22.535Z,62.13
2018-09-22T08:51:28.767Z,61.55
2018-09-22T08:52:34.667Z,61.14
2018-09-22T08:53:40.900Z,61.11
2018-09-22T08:54:47.159Z,61.90
2018-09-22T08:55:53.436Z,61.84
2018-09-22T08:56:59.666Z,62.42
2018-09-22T08:58:05.941Z,61.57
2018-09-22T08:59:12.186Z,62.11
2018-09-22T09:00:18.483Z,62.07
2018-09-22T09:01:24.863Z,61.80
2018-09-22T09:02:30.836Z,61.60
2018-09-22T09:03:36.820Z,62.04
2018-09-22T09:04:43.124Z,61.42
2018-09-22T09:05:49.597Z,61.28
2018-09-22T09:06:56.058Z,61.24
2018-09-22T09:08:02.341Z,61.00
2018-09-22T09:09:08.265Z,60.36
2018-09-22T09:10:14.623Z,60.97
2018-09-22T09:11:20.922Z,61.54
2018-09-22T09:12:27.174Z,62.30
2018-09-22T09:13:33.459Z,61.41
2018-09-22T09:14:39.724Z,61.08
2018-09-22T09:15:45.877Z,61.65
2018-09-22T09:16:52.135Z,61.53
2018-09-22T09:17:58.399Z,61.21
2018-09-22T09:19:04.304Z,60.98
2018-09-22T09:20:10.557Z,61.17
2018-09-22T09:21:16.805Z,60.96
2018-09-22T09:22:23.056Z,61.09
2018-09-22T09:23:29.309Z,61.17
2018-09-22T09:24:35.593Z,61.36
2018-09-22T09:25:41.858Z,61.75
2018-09-22T09:26:48.123Z,61.39
2018-09-22T09:27:54.409Z,60.91
2018-09-22T09:29:00.951Z,61.00
2018-09-22T09:30:06.962Z,60.33
2018-09-22T09:31:13.201Z,60.22
2018-09-22T09:32:19.439Z,61.00
2018-09-22T09:33:25.695Z,60.51
2018-09-22T09:34:31.933Z,60.50
2018-09-22T09:35:38.213Z,61.67
2018-09-22T09:36:44.478Z,60.89
2018-09-22T09:37:51.141Z,60.57
2018-09-22T09:38:57.399Z,60.86
2018-09-22T09:40:03.723Z,60.56
2018-09-22T09:41:10.015Z,60.25
2018-09-22T09:42:16.283Z,59.65
2018-09-22T09:43:22.628Z,59.24
2018-09-22T09:44:29.053Z,59.67
2018-09-22T09:45:35.284Z,59.05
2018-09-22T09:46:41.544Z,58.84
2018-09-22T09:47:47.593Z,58.70
2018-09-22T09:48:53.820Z,58.71
2018-09-22T09:50:00.069Z,58.60
2018-09-22T09:51:06.304Z,58.14
2018-09-22T09:52:12.535Z,57.87
2018-09-22T09:53:18.457Z,57.75
2018-09-22T09:54:24.827Z,57.91
2018-09-22T09:55:31.260Z,57.70
2018-09-22T09:56:37.195Z,58.34
2018-09-22T09:57:43.487Z,58.32
2018-09-22T09:58:49.700Z,58.49
2018-09-22T09:59:55.927Z,58.48
2018-09-22T10:01:02.163Z,58.72
2018-09-22T10:02:08.028Z,58.52
2018-09-22T10:03:13.928Z,58.66
2018-09-22T10:04:20.219Z,58.78
2018-09-22T10:05:26.516Z,58.96
2018-09-22T10:06:32.815Z,56.56
2018-09-22T10:07:39.091Z,57.19
2018-09-22T10:08:45.386Z,56.66
2018-09-22T10:09:51.632Z,56.84
2018-09-22T10:10:57.857Z,57.58
2018-09-22T10:12:03.804Z,57.51
2018-09-22T10:13:10.208Z,57.56
2018-09-22T10:14:16.111Z,58.00
2018-09-22T10:15:22.721Z,57.54
2018-09-22T10:16:28.992Z,57.38
2018-09-22T10:17:35.268Z,56.71
2018-09-22T10:18:41.522Z,56.99
2018-09-22T10:19:47.794Z,57.27
2018-09-22T10:20:54.034Z,56.26
2018-09-22T10:22:00.260Z,56.37
2018-09-22T10:23:06.535Z,56.25
2018-09-22T10:24:12.778Z,56.28
2018-09-22T10:25:19.095Z,55.69
2018-09-22T10:26:25.414Z,56.35
2018-09-22T10:27:31.691Z,57.09
2018-09-22T10:28:37.954Z,57.21
2018-09-22T10:29:44.216Z,56.79
2018-09-22T10:30:50.445Z,56.49
2018-09-22T10:31:56.698Z,56.14
2018-09-22T10:33:02.600Z,56.09
2018-09-22T10:34:08.886Z,56.44
2018-09-22T10:35:15.132Z,56.38
2018-09-22T10:36:21.412Z,56.86
2018-09-22T10:37:27.710Z,58.06
2018-09-22T10:38:33.976Z,57.49
2018-09-22T10:39:40.272Z,57.46
2018-09-22T10:40:46.673Z,57.77
2018-09-22T10:41:52.902Z,58.54
2018-09-22T10:42:59.225Z,58.59
2018-09-22T10:44:05.498Z,58.75
2018-09-22T10:45:11.766Z,59.50
2018-09-22T10:46:18.009Z,59.45
2018-09-22T10:47:24.275Z,59.32
2018-09-22T10:48:30.549Z,58.44
2018-09-22T10:49:36.809Z,58.61
2018-09-22T10:50:43.112Z,57.85
2018-09-22T10:51:49.114Z,57.52
2018-09-22T10:52:55.402Z,57.76
2018-09-22T10:54:01.890Z,57.91
2018-09-22T10:55:08.161Z,57.85
2018-09-22T10:56:14.521Z,57.34
2018-09-22T10:57:20.903Z,57.48
2018-09-22T10:58:27.200Z,58.24
2018-09-22T10:59:33.445Z,58.63
2018-09-22T11:00:39.312Z,57.67
2018-09-22T11:01:45.626Z,57.54
2018-09-22T11:02:51.851Z,57.49
2018-09-22T11:03:58.106Z,57.97
2018-09-22T11:05:03.786Z,57.90
2018-09-22T11:06:10.091Z,58.08
2018-09-22T11:07:16.377Z,57.72
2018-09-22T11:08:22.713Z,57.22
2018-09-22T11:09:28.992Z,57.36
2018-09-22T11:10:35.241Z,56.73
2018-09-22T11:11:41.477Z,56.46
2018-09-22T11:12:47.801Z,56.12
2018-09-22T11:13:54.228Z,56.28
2018-09-22T11:15:00.608Z,56.41
2018-09-22T11:16:06.591Z,56.77
2018-09-22T11:17:13.041Z,55.70
2018-09-22T11:18:19.304Z,55.56
2018-09-22T11:19:25.690Z,55.47
2018-09-22T11:20:31.952Z,55.81
2018-09-22T11:21:38.232Z,55.28
2018-09-22T11:22:44.465Z,55.08
2018-09-22T11:23:50.744Z,54.55
2018-09-22T11:24:56.976Z,54.00
2018-09-22T11:26:03.210Z,54.91
2018-09-22T11:27:09.492Z,55.64
2018-09-22T11:28:15.821Z,54.55
2018-09-22T11:29:22.094Z,55.21
2018-09-22T11:30:28.358Z,54.67
2018-09-22T11:31:34.236Z,55.02
2018-09-22T11:32:40.535Z,54.92
2018-09-22T11:33:46.997Z,54.29
2018-09-22T11:34:53.293Z,53.40
2018-09-22T11:35:59.540Z,53.62
2018-09-22T11:37:05.794Z,54.02
2018-09-22T11:38:12.887Z,54.10
2018-09-22T11:39:19.208Z,54.38
2018-09-22T11:40:25.468Z,54.13
2018-09-22T11:41:31.689Z,53.79
2018-09-22T11:42:38.012Z,53.45
2018-09-22T11:43:44.249Z,52.70
2018-09-22T11:44:50.513Z,53.75
2018-09-22T11:45:56.777Z,53.59
2018-09-22T11:47:03.012Z,52.69
2018-09-22T11:48:09.247Z,52.38
2018-09-22T11:49:15.491Z,52.11
2018-09-22T11:50:21.358Z,52.45
2018-09-22T11:51:27.690Z,52.73
2018-09-22T11:52:33.975Z,53.01
2018-09-22T11:53:40.267Z,52.37
2018-09-22T11:54:46.546Z,52.38
2018-09-22T11:55:52.789Z,53.19
2018-09-22T11:56:59.011Z,51.93
2018-09-22T11:58:05.256Z,52.69
2018-09-22T11:59:11.540Z,52.62
2018-09-22T12:00:17.622Z,52.18
2018-09-22T12:01:23.886Z,51.03
2018-09-22T12:02:30.129Z,51.10
2018-09-22T12:03:36.404Z,51.84
2018-09-22T12:04:42.717Z,52.20
2018-09-22T12:05:49.019Z,51.60
2018-09-22T12:06:55.471Z,51.42
2018-09-22T12:08:01.742Z,51.06
2018-09-22T12:09:07.697Z,50.97
2018-09-22T12:10:13.957Z,51.23
2018-09-22T12:11:20.263Z,51.52
2018-09-22T12:12:28.061Z,51.32
2018-09-22T12:13:35.210Z,50.32
2018-09-22T12:14:42.843Z,50.77
2018-09-22T12:15:50.327Z,50.29
2018-09-22T12:16:57.526Z,50.50
2018-09-22T12:18:12.727Z,50.40
2018-09-22T12:19:27.180Z,50.26
2018-09-22T12:20:34.222Z,50.69
2018-09-22T12:21:41.486Z,50.38
2018-09-22T12:22:48.805Z,50.10
2018-09-22T12:23:56.096Z,49.79
2018-09-22T12:25:03.330Z,49.69
2018-09-22T12:26:10.461Z,49.61
2018-09-22T12:27:18.614Z,49.33
2018-09-22T12:28:27.410Z,49.00
2018-09-22T12:29:36.007Z,49.27
2018-09-22T12:30:44.309Z,49.77
2018-09-22T12:32:02.636Z,50.25
2018-09-22T12:33:10.122Z,51.41
2018-09-22T12:34:19.931Z,51.07
2018-09-22T12:35:30.736Z,49.96
2018-09-22T12:36:40.229Z,49.97
2018-09-22T12:37:47.472Z,50.30
2018-09-22T12:38:56.569Z,50.07
2018-09-22T12:40:04.562Z,50.64
2018-09-22T12:41:12.067Z,51.29
2018-09-22T12:42:19.741Z,50.83
2018-09-22T12:43:28.762Z,49.66
2018-09-22T12:44:37.099Z,48.58
2018-09-22T12:45:45.639Z,48.47
2018-09-22T12:46:52.703Z,48.72
2018-09-22T12:48:00.085Z,48.79
2018-09-22T12:49:08.739Z,48.60
2018-09-22T12:50:16.974Z,49.07
2018-09-22T12:51:25.841Z,49.84
2018-09-22T12:52:33.301Z,49.10
2018-09-22T12:53:42.139Z,49.22
2018-09-22T12:54:49.536Z,49.50
2018-09-22T12:55:56.877Z,49.31
2018-09-22T12:57:04.169Z,49.59
2018-09-22T12:58:11.395Z,49.43
2018-09-22T12:59:19.554Z,49.19
2018-09-22T13:00:27.676Z,49.49
2018-09-22T13:01:34.996Z,48.94
2018-09-22T13:02:44.078Z,49.24
2018-09-22T13:03:51.411Z,48.87
2018-09-22T13:04:58.906Z,48.87
2018-09-22T13:06:06.302Z,48.36
2018-09-22T13:07:14.134Z,48.53
2018-09-22T13:08:21.349Z,48.51
2018-09-22T13:09:28.522Z,48.84
2018-09-22T13:10:36.728Z,49.12
2018-09-22T13:11:43.943Z,48.77
2018-09-22T13:12:51.233Z,48.31
2018-09-22T13:13:58.497Z,48.96
2018-09-22T13:15:05.790Z,49.49
2018-09-22T13:16:14.035Z,49.64
2018-09-22T13:17:21.256Z,49.33
2018-09-22T13:18:28.584Z,49.71
2018-09-22T13:19:35.957Z,50.08
2018-09-22T13:20:42.973Z,49.96
2018-09-22T13:21:53.127Z,49.39
2018-09-22T13:23:00.683Z,50.03
2018-09-22T13:24:09.159Z,50.32
2018-09-22T13:25:16.273Z,49.95
2018-09-22T13:26:23.616Z,49.43
2018-09-22T13:27:31.873Z,49.40
2018-09-22T13:28:39.238Z,49.18
2018-09-22T13:29:46.563Z,49.93
2018-09-22T13:30:54.794Z,49.79
2018-09-22T13:32:02.813Z,50.39
2018-09-22T13:33:10.375Z,50.13
2018-09-22T13:34:18.134Z,49.55
2018-09-22T13:35:25.856Z,49.87
2018-09-22T13:36:33.344Z,50.74
2018-09-22T13:37:40.864Z,50.12
2018-09-22T13:38:49.300Z,49.22
2018-09-22T13:39:57.509Z,48.94
2018-09-22T13:41:04.761Z,49.56
2018-09-22T13:42:12.019Z,49.58
2018-09-22T13:43:18.664Z,49.49
2018-09-22T13:44:26.379Z,48.68
2018-09-22T13:45:33.584Z,48.54
2018-09-22T13:46:40.575Z,48.82
2018-09-22T13:47:47.078Z,48.57
2018-09-22T13:48:54.521Z,48.35
2018-09-22T13:50:01.821Z,48.07
2018-09-22T13:51:08.818Z,48.30
2018-09-22T13:52:15.954Z,47.86
2018-09-22T13:53:22.436Z,47.82
2018-09-22T13:54:29.552Z,48.30
2018-09-22T13:55:36.719Z,48.50
2018-09-22T13:56:43.932Z,47.87
2018-09-22T13:57:50.517Z,47.24
2018-09-22T13:58:57.271Z,46.42
2018-09-22T14:00:03.892Z,47.25
2018-09-22T14:01:10.488Z,47.45
2018-09-22T14:02:17.187Z,46.81
2018-09-22T14:03:23.719Z,46.55
2018-09-22T14:04:30.307Z,46.91
2018-09-22T14:05:37.059Z,46.46
2018-09-22T14:06:43.111Z,46.60
2018-09-22T14:07:49.543Z,47.06
2018-09-22T14:08:55.953Z,47.39
2018-09-22T14:10:02.538Z,47.41
2018-09-22T14:11:10.203Z,46.77
2018-09-22T14:12:16.462Z,46.20
2018-09-22T14:13:22.736Z,46.72
2018-09-22T14:14:29.118Z,45.91
2018-09-22T14:15:36.756Z,46.02
2018-09-22T14:16:43.564Z,46.08
2018-09-22T14:17:50.006Z,46.40
2018-09-22T14:18:56.709Z,46.29